Terminal Aerodrome Forecast
Issued by NWS Sterling, VA

Current Version | Previous Version | Graphics & Text | Print | Product List | Glossary On
Versions: 1 2 3 4 5 6 7 8 9 10 11 12 13 14 15 16 17 18 19 20 21 22 23 24 25 26 27 28 29 30
000
FTUS41 KLWX 021120
TAFIAD
TAF
KIAD 021120Z 0212/0318 33004KT P6SM FEW070 SCT250
     FM021300 33004KT P6SM SCT070 BKN250
     FM030800 31005KT P6SM FEW080 SCT250
     FM030900 32005KT 5SM BR FEW080 SCT250
     FM031300 33004KT P6SM FEW080 SCT250=

USA.gov is the U.S. government's official web portal to all federal, state and local government web resources and services.